Time;durP1;ratioP1;P1;durP2;ratioP2;P2;SDS_P1;SDS_P2;PMS_P1;PMS_P2;Temp;Humidity;BMP_temperature;BMP_pressure;BME280_temperature;BME280_humidity;BME280_pressure;Samples;Min_cycle;Max_cycle;Signal;HPM_P1;HPM_P2
2022/10/12 00:00:20;;;;;;;2.20;2.03;;;5.40;97.30;;;;;;5076951;28;20185;-81
2022/10/12 00:02:45;;;;;;;2.13;1.97;;;5.40;97.30;;;;;;5077547;28;20405;-83
2022/10/12 00:05:11;;;;;;;1.67;1.57;;;5.40;97.30;;;;;;5077902;28;20424;-81
2022/10/12 00:07:37;;;;;;;6.00;2.70;;;5.30;97.30;;;;;;5076831;28;20209;-83
2022/10/12 00:10:02;;;;;;;14.20;3.40;;;5.30;97.30;;;;;;5076694;28;20224;-82
2022/10/12 00:12:28;;;;;;;5.60;4.97;;;5.30;97.30;;;;;;5076895;28;20774;-82
2022/10/12 00:14:53;;;;;;;3.63;3.43;;;5.30;97.30;;;;;;5095130;28;20170;-82
2022/10/12 00:17:19;;;;;;;2.70;2.50;;;5.30;97.30;;;;;;5076993;28;20171;-82
2022/10/12 00:19:45;;;;;;;2.83;2.33;;;5.30;97.30;;;;;;5095005;28;20182;-83
2022/10/12 00:22:10;;;;;;;2.33;2.13;;;5.20;97.30;;;;;;5077389;28;20283;-81
2022/10/12 00:24:36;;;;;;;2.37;2.10;;;5.20;97.30;;;;;;5076622;28;20705;-82
2022/10/12 00:27:01;;;;;;;5.37;3.13;;;5.20;97.30;;;;;;5076583;28;20343;-82
2022/10/12 00:29:27;;;;;;;3.33;3.13;;;5.20;97.30;;;;;;5076878;28;20177;-82
2022/10/12 00:31:53;;;;;;;3.57;2.97;;;5.10;97.30;;;;;;5080790;28;20190;-82
2022/10/12 00:34:18;;;;;;;4.00;2.60;;;5.10;97.30;;;;;;5081341;28;20206;-82
2022/10/12 00:36:44;;;;;;;7.03;3.80;;;5.10;97.30;;;;;;5080785;28;20257;-83
2022/10/12 00:39:10;;;;;;;2.93;2.73;;;5.10;97.30;;;;;;5099525;28;20633;-83
2022/10/12 00:41:40;;;;;;;2.70;2.50;;;5.00;97.30;;;;;;5080882;28;20277;-82
2022/10/12 00:44:36;;;;;;;2.47;2.30;;;5.00;97.30;;;;;;5080711;28;20404;-81
2022/10/12 00:47:07;;;;;;;2.67;2.50;;;5.00;97.30;;;;;;5080680;28;20513;-82
2022/10/12 00:49:33;;;;;;;11.63;3.40;;;5.00;97.30;;;;;;5081655;28;20408;-80
2022/10/12 00:52:03;;;;;;;2.00;1.67;;;5.00;97.30;;;;;;5081010;28;20845;-83
2022/10/12 00:54:33;;;;;;;3.00;2.80;;;5.00;97.30;;;;;;5080943;28;20900;-82
2022/10/12 00:57:01;;;;;;;6.60;2.70;;;5.00;97.30;;;;;;5099385;28;20403;-82
2022/10/12 00:59:34;;;;;;;1.83;1.73;;;5.00;97.30;;;;;;5080505;28;20412;-83
2022/10/12 01:02:00;;;;;;;3.93;2.30;;;5.00;97.30;;;;;;5098567;28;20482;-82
2022/10/12 01:04:25;;;;;;;2.37;2.23;;;5.00;97.30;;;;;;5098855;28;20408;-82
2022/10/12 01:06:52;;;;;;;2.93;2.20;;;5.00;97.30;;;;;;5081367;28;20220;-82
2022/10/12 01:09:19;;;;;;;4.27;3.17;;;4.90;97.30;;;;;;5081770;28;20404;-82
2022/10/12 01:11:45;;;;;;;3.80;3.60;;;4.90;97.30;;;;;;5099403;28;20807;-82
2022/10/12 01:14:10;;;;;;;2.70;2.50;;;4.90;97.30;;;;;;5098960;28;20431;-82
2022/10/12 01:16:57;;;;;;;3.27;2.67;;;4.80;97.30;;;;;;5080916;28;20582;-82
2022/10/12 01:19:41;;;;;;;2.60;2.20;;;4.80;97.30;;;;;;5099744;28;20190;-82
2022/10/12 01:22:10;;;;;;;3.37;2.77;;;4.70;97.30;;;;;;5080090;28;20508;-82
2022/10/12 01:24:42;;;;;;;6.90;2.00;;;4.70;97.30;;;;;;5081891;28;20405;-81
2022/10/12 01:27:26;;;;;;;1.93;1.77;;;4.70;97.30;;;;;;5081834;28;20464;-82
2022/10/12 01:30:06;;;;;;;3.17;3.00;;;4.70;97.30;;;;;;5081224;28;20419;-82
2022/10/12 01:32:57;;;;;;;5.17;3.70;;;4.60;97.30;;;;;;5080973;28;20422;-82
2022/10/12 01:35:42;;;;;;;2.77;2.60;;;4.60;97.30;;;;;;5081829;28;20429;-82
2022/10/12 01:38:17;;;;;;;2.70;1.80;;;4.50;97.30;;;;;;5081605;28;20799;-83
2022/10/12 01:41:07;;;;;;;2.00;1.83;;;4.50;97.30;;;;;;5080548;28;20431;-78
2022/10/12 01:43:36;;;;;;;3.73;2.03;;;4.50;97.30;;;;;;5079907;28;20428;-81
2022/10/12 01:46:19;;;;;;;4.70;2.37;;;4.50;97.30;;;;;;5078967;28;20448;-82
2022/10/12 01:48:48;;;;;;;4.40;3.40;;;4.40;97.30;;;;;;5098067;28;20435;-83
2022/10/12 01:51:27;;;;;;;2.23;2.03;;;4.40;97.30;;;;;;5078518;28;20445;-84
2022/10/12 01:54:32;;;;;;;3.00;2.80;;;4.40;97.30;;;;;;5078560;28;20442;-81
2022/10/12 01:57:11;;;;;;;2.93;2.73;;;4.40;97.30;;;;;;5077655;28;20954;-83
2022/10/12 02:00:01;;;;;;;7.30;3.97;;;4.40;97.30;;;;;;5077752;28;20470;-84
2022/10/12 02:02:52;;;;;;;2.37;2.17;;;4.30;97.30;;;;;;5095983;28;20989;-84
2022/10/12 02:05:17;;;;;;;2.70;2.53;;;4.30;97.30;;;;;;5077994;28;20413;-82
2022/10/12 02:07:52;;;;;;;2.50;2.17;;;4.30;97.30;;;;;;5077769;28;20482;-83
2022/10/12 02:10:27;;;;;;;4.70;2.87;;;4.30;97.30;;;;;;5077482;28;20170;-83
2022/10/12 02:12:55;;;;;;;2.60;2.40;;;4.30;97.30;;;;;;5078136;28;20819;-83
2022/10/12 02:15:24;;;;;;;5.30;3.87;;;4.20;97.30;;;;;;5099061;28;20396;-83
2022/10/12 02:17:51;;;;;;;5.93;3.00;;;4.20;97.30;;;;;;5116908;28;20906;-83
2022/10/12 02:20:19;;;;;;;3.57;3.07;;;4.20;97.30;;;;;;5098418;28;20415;-82
2022/10/12 02:22:48;;;;;;;2.30;2.10;;;4.20;97.30;;;;;;5099260;28;20523;-83
2022/10/12 02:25:18;;;;;;;2.63;2.43;;;4.10;97.30;;;;;;5100669;28;20419;-82
2022/10/12 02:27:50;;;;;;;2.27;2.07;;;4.10;97.30;;;;;;5099892;28;20455;-82
2022/10/12 02:30:16;;;;;;;2.87;2.70;;;4.10;97.30;;;;;;5118538;28;20706;-82
2022/10/12 02:33:03;;;;;;;2.30;1.63;;;4.10;97.30;;;;;;5099981;28;20411;-83
2022/10/12 02:35:44;;;;;;;2.40;2.20;;;4.10;97.30;;;;;;5100291;28;20490;-82
2022/10/12 02:38:16;;;;;;;4.13;3.10;;;4.20;97.30;;;;;;5100374;28;20404;-79
2022/10/12 02:40:53;;;;;;;2.47;2.27;;;4.20;97.30;;;;;;5118088;28;20423;-81
2022/10/12 02:43:41;;;;;;;2.07;1.93;;;4.10;97.30;;;;;;5099728;28;20415;-82
2022/10/12 02:46:09;;;;;;;5.53;3.10;;;4.10;97.30;;;;;;5098918;28;20497;-82
2022/10/12 02:48:38;;;;;;;2.80;2.60;;;4.10;97.30;;;;;;5099031;28;20422;-83
2022/10/12 02:51:06;;;;;;;3.17;2.50;;;4.10;97.30;;;;;;5098637;28;20511;-79
2022/10/12 02:53:31;;;;;;;1.93;1.83;;;4.10;97.30;;;;;;5116039;28;20412;-81
2022/10/12 02:56:06;;;;;;;1.93;1.83;;;4.10;97.30;;;;;;5098105;28;20495;-82
2022/10/12 02:58:31;;;;;;;8.90;3.23;;;4.10;97.30;;;;;;5098437;28;20723;-82
2022/10/12 03:00:57;;;;;;;6.20;2.33;;;4.00;97.30;;;;;;5116724;28;20431;-82
2022/10/12 03:03:23;;;;;;;7.23;4.37;;;4.00;97.30;;;;;;5098333;28;20640;-82
2022/10/12 03:05:48;;;;;;;1.57;1.50;;;4.00;97.30;;;;;;5097744;28;20656;-82
2022/10/12 03:08:14;;;;;;;3.53;2.20;;;4.00;97.30;;;;;;5098503;28;20196;-83
2022/10/12 03:10:39;;;;;;;2.50;2.10;;;4.00;97.30;;;;;;5098495;28;20193;-81
2022/10/12 03:13:05;;;;;;;1.77;1.67;;;4.00;97.30;;;;;;5097996;28;20177;-83
2022/10/12 03:15:30;;;;;;;2.97;2.77;;;4.00;97.30;;;;;;5098477;28;20178;-82
2022/10/12 03:17:56;;;;;;;3.07;2.70;;;3.90;97.30;;;;;;5098728;28;20269;-82
2022/10/12 03:20:22;;;;;;;2.70;2.50;;;3.90;97.30;;;;;;5098499;28;20178;-82
2022/10/12 03:22:47;;;;;;;4.30;3.53;;;3.90;97.30;;;;;;5098283;28;20174;-82
2022/10/12 03:25:13;;;;;;;2.77;2.63;;;3.90;97.30;;;;;;5116784;28;20173;-82
2022/10/12 03:27:38;;;;;;;1.60;1.50;;;3.90;97.30;;;;;;5097875;28;20242;-81
2022/10/12 03:30:04;;;;;;;6.60;3.07;;;4.00;97.30;;;;;;5098430;28;20177;-82
2022/10/12 03:32:33;;;;;;;3.80;3.60;;;4.00;97.30;;;;;;5097583;28;20213;-82
2022/10/12 03:34:58;;;;;;;3.17;2.97;;;4.00;97.30;;;;;;5098160;28;20469;-82
2022/10/12 03:37:24;;;;;;;2.57;2.37;;;4.00;97.30;;;;;;5116974;28;20415;-82
2022/10/12 03:39:50;;;;;;;3.13;2.83;;;3.90;97.30;;;;;;5104756;27;20230;-82
2022/10/12 03:42:15;;;;;;;5.33;2.00;;;3.90;97.30;;;;;;5105193;27;20562;-82
2022/10/12 03:44:41;;;;;;;2.43;2.23;;;3.80;97.30;;;;;;5092775;28;20644;-83
2022/10/12 03:47:06;;;;;;;2.57;2.37;;;3.80;97.30;;;;;;5084190;28;20232;-83
2022/10/12 03:49:32;;;;;;;1.73;1.63;;;3.80;97.30;;;;;;5084458;28;20221;-82
2022/10/12 03:51:57;;;;;;;1.77;1.70;;;3.70;97.30;;;;;;5084902;28;20777;-82
2022/10/12 03:54:23;;;;;;;3.13;2.93;;;3.70;97.30;;;;;;5081735;28;20181;-82
2022/10/12 03:56:49;;;;;;;3.77;2.47;;;3.70;97.30;;;;;;5084757;28;20416;-82
2022/10/12 03:59:14;;;;;;;2.00;1.93;;;3.70;97.30;;;;;;5095063;28;20276;-81
2022/10/12 04:01:40;;;;;;;2.30;2.10;;;3.60;97.30;;;;;;5087140;28;20205;-82
2022/10/12 04:04:05;;;;;;;6.33;3.20;;;3.60;97.30;;;;;;5095202;28;20177;-81
2022/10/12 04:06:31;;;;;;;4.10;2.57;;;3.60;97.30;;;;;;5081190;28;20224;-81
2022/10/12 04:08:56;;;;;;;3.17;2.30;;;3.50;97.30;;;;;;5098303;28;20174;-82
2022/10/12 04:11:22;;;;;;;3.07;2.87;;;3.50;97.30;;;;;;5093790;28;20195;-82
2022/10/12 04:13:48;;;;;;;2.30;2.10;;;3.50;97.30;;;;;;5092003;28;20237;-84
2022/10/12 04:16:13;;;;;;;5.20;2.47;;;3.50;97.30;;;;;;5082149;28;20189;-82
2022/10/12 04:18:39;;;;;;;4.67;2.20;;;3.50;97.30;;;;;;5084083;28;20420;-82
2022/10/12 04:21:15;;;;;;;10.40;2.10;;;3.50;97.30;;;;;;5086805;28;20228;-83
2022/10/12 04:23:41;;;;;;;2.93;2.77;;;3.50;97.30;;;;;;5080893;28;20215;-84
2022/10/12 04:26:06;;;;;;;3.80;2.90;;;3.50;97.30;;;;;;5089450;28;20448;-83
2022/10/12 04:28:32;;;;;;;2.97;2.27;;;3.40;97.30;;;;;;5079091;28;20938;-82
2022/10/12 04:30:58;;;;;;;3.90;2.17;;;3.40;97.30;;;;;;5076925;28;20249;-84
2022/10/12 04:33:23;;;;;;;9.90;4.20;;;3.40;97.30;;;;;;5073964;28;20568;-83
2022/10/12 04:35:49;;;;;;;2.43;2.23;;;3.40;97.30;;;;;;5073768;28;20213;-83
2022/10/12 04:38:14;;;;;;;5.67;3.23;;;3.40;97.30;;;;;;5087600;28;20242;-84
2022/10/12 04:40:40;;;;;;;2.80;2.43;;;3.40;97.30;;;;;;5094270;28;20218;-83
2022/10/12 04:43:06;;;;;;;3.17;2.97;;;3.30;97.30;;;;;;5094910;28;20195;-82
2022/10/12 04:45:31;;;;;;;5.60;2.37;;;3.30;97.30;;;;;;5094438;28;20171;-83
2022/10/12 04:47:57;;;;;;;3.00;2.80;;;3.40;97.30;;;;;;5094317;28;20205;-80
2022/10/12 04:50:22;;;;;;;2.97;2.50;;;3.40;97.30;;;;;;5094106;28;20205;-83
2022/10/12 04:52:48;;;;;;;2.70;2.50;;;3.40;97.30;;;;;;5094299;28;20213;-83
2022/10/12 04:55:14;;;;;;;11.70;3.80;;;3.40;97.30;;;;;;5095220;28;20171;-82
2022/10/12 04:57:39;;;;;;;2.80;1.90;;;3.40;97.30;;;;;;5093519;28;20200;-82
2022/10/12 05:00:06;;;;;;;4.60;3.33;;;3.40;97.30;;;;;;5093466;28;20180;-83
2022/10/12 05:02:35;;;;;;;5.83;2.60;;;3.40;97.30;;;;;;5091543;28;20590;-84
2022/10/12 05:05:01;;;;;;;3.47;3.27;;;3.40;97.30;;;;;;5091661;28;20452;-84
2022/10/12 05:07:26;;;;;;;5.47;3.60;;;3.50;97.30;;;;;;5092176;28;20506;-82
2022/10/12 05:09:52;;;;;;;1.87;1.77;;;3.50;97.30;;;;;;5091549;28;20219;-83
2022/10/12 05:12:18;;;;;;;5.43;2.43;;;3.50;97.30;;;;;;5091912;28;20214;-83
2022/10/12 05:14:43;;;;;;;26.97;3.40;;;3.50;97.30;;;;;;5092104;28;20405;-83
2022/10/12 05:17:09;;;;;;;2.10;1.77;;;3.50;97.30;;;;;;5077045;28;20554;-83
2022/10/12 05:19:35;;;;;;;2.47;2.23;;;3.40;97.30;;;;;;5075375;28;20186;-84
2022/10/12 05:22:01;;;;;;;4.10;2.37;;;3.40;97.30;;;;;;5074877;28;20465;-83
2022/10/12 05:24:26;;;;;;;6.60;3.40;;;3.30;97.30;;;;;;5076621;28;20259;-82
2022/10/12 05:26:52;;;;;;;5.23;2.23;;;3.30;97.30;;;;;;5075515;28;20469;-83
2022/10/12 05:29:17;;;;;;;3.53;3.33;;;3.30;97.30;;;;;;5075751;28;20201;-81
2022/10/12 05:31:43;;;;;;;2.23;1.53;;;3.30;97.30;;;;;;5076749;28;20241;-82
2022/10/12 05:34:08;;;;;;;3.20;3.00;;;3.20;97.30;;;;;;5076239;28;20170;-83
2022/10/12 05:36:34;;;;;;;3.37;1.80;;;3.20;97.30;;;;;;5086451;28;20634;-83
2022/10/12 05:39:00;;;;;;;1.67;1.57;;;3.20;97.30;;;;;;5083172;28;20266;-82
2022/10/12 05:41:25;;;;;;;4.93;3.67;;;3.20;97.30;;;;;;5077153;28;20210;-84
2022/10/12 05:43:52;;;;;;;3.43;3.23;;;3.20;97.30;;;;;;5083589;28;20175;-83
2022/10/12 05:46:18;;;;;;;1.87;1.77;;;3.20;97.30;;;;;;5086545;28;20307;-84
2022/10/12 05:48:43;;;;;;;3.00;2.67;;;3.20;97.30;;;;;;5084404;28;20449;-80
2022/10/12 05:51:09;;;;;;;8.40;3.40;;;3.30;97.30;;;;;;5088213;28;20568;-83
2022/10/12 05:53:34;;;;;;;2.20;2.00;;;3.30;97.30;;;;;;5080717;28;20171;-84
2022/10/12 05:56:01;;;;;;;2.53;2.33;;;3.30;97.30;;;;;;5076431;28;20171;-83
2022/10/12 05:58:28;;;;;;;2.30;2.10;;;3.30;97.30;;;;;;5076240;28;20179;-83
2022/10/12 06:01:02;;;;;;;3.00;2.80;;;3.30;97.30;;;;;;5075899;28;20445;-83
2022/10/12 06:03:28;;;;;;;3.80;3.03;;;3.30;97.30;;;;;;5077238;28;20397;-82
2022/10/12 06:05:53;;;;;;;10.10;3.53;;;3.30;97.30;;;;;;5076168;28;20522;-83
2022/10/12 06:08:19;;;;;;;1.90;1.80;;;3.40;97.30;;;;;;5089524;28;20186;-84
2022/10/12 06:10:50;;;;;;;2.73;2.53;;;3.40;97.30;;;;;;5097661;28;20432;-83
2022/10/12 06:13:16;;;;;;;2.33;2.13;;;3.40;97.30;;;;;;5095483;28;20177;-83
2022/10/12 06:15:47;;;;;;;1.90;1.80;;;3.40;97.30;;;;;;5089937;28;20428;-83
2022/10/12 06:18:13;;;;;;;3.00;2.73;;;3.40;97.30;;;;;;5076776;28;20397;-82
2022/10/12 06:20:39;;;;;;;2.07;1.93;;;3.40;97.30;;;;;;5077527;28;20429;-83
2022/10/12 06:23:04;;;;;;;3.70;2.30;;;3.40;97.30;;;;;;5087151;28;20534;-83
2022/10/12 06:25:30;;;;;;;1.90;1.80;;;3.50;97.30;;;;;;5098918;28;20181;-82
2022/10/12 06:27:56;;;;;;;4.50;2.43;;;3.50;97.30;;;;;;5083813;28;20672;-83
2022/10/12 06:30:21;;;;;;;8.00;2.73;;;3.60;97.30;;;;;;5078941;28;20170;-83
2022/10/12 06:32:47;;;;;;;3.10;2.90;;;3.60;97.30;;;;;;5079336;28;20709;-82
2022/10/12 06:35:12;;;;;;;4.30;2.97;;;3.70;97.30;;;;;;5078906;28;20572;-83
2022/10/12 06:37:38;;;;;;;1.43;1.33;;;3.80;97.30;;;;;;5090283;28;20189;-83
2022/10/12 06:40:04;;;;;;;6.57;2.03;;;3.90;97.30;;;;;;5099266;28;20166;-84
2022/10/12 06:42:30;;;;;;;3.67;2.70;;;3.90;97.30;;;;;;5098927;28;20194;-84
2022/10/12 06:44:56;;;;;;;1.60;1.50;;;4.00;97.30;;;;;;5102483;27;20422;-83
2022/10/12 06:47:21;;;;;;;4.40;2.60;;;4.10;97.30;;;;;;5118510;27;20450;-83
2022/10/12 06:49:47;;;;;;;2.80;2.60;;;4.20;97.30;;;;;;5119058;27;20196;-83
2022/10/12 06:52:12;;;;;;;2.80;2.60;;;4.30;97.30;;;;;;5136068;27;20217;-84
2022/10/12 06:54:40;;;;;;;26.03;2.97;;;4.30;97.30;;;;;;5116908;27;20577;-84
2022/10/12 06:57:05;;;;;;;2.43;2.23;;;4.40;97.30;;;;;;5118382;27;20271;-81
2022/10/12 06:59:31;;;;;;;2.70;1.90;;;4.50;97.30;;;;;;5136325;27;20415;-84
2022/10/12 07:01:57;;;;;;;4.30;3.83;;;4.60;97.30;;;;;;5116795;27;20197;-84
2022/10/12 07:04:22;;;;;;;1.97;1.87;;;4.70;97.30;;;;;;5116743;27;20173;-84
2022/10/12 07:06:48;;;;;;;3.40;2.13;;;4.80;97.30;;;;;;5135432;27;20199;-84
2022/10/12 07:09:15;;;;;;;3.00;2.80;;;5.00;97.30;;;;;;5116755;27;20177;-82
2022/10/12 07:11:41;;;;;;;30.43;3.30;;;5.10;97.30;;;;;;5117244;27;20254;-83
2022/10/12 07:14:06;;;;;;;5.40;2.93;;;5.20;97.30;;;;;;5116112;27;20921;-84
2022/10/12 07:16:33;;;;;;;2.83;2.57;;;5.30;97.30;;;;;;5103065;28;20694;-84
2022/10/12 07:18:58;;;;;;;2.83;2.63;;;5.40;97.30;;;;;;5114865;28;20651;-83
2022/10/12 07:21:24;;;;;;;2.73;2.53;;;5.60;97.30;;;;;;5114286;28;20485;-82
2022/10/12 07:23:49;;;;;;;9.40;2.80;;;5.70;97.30;;;;;;5097912;28;20177;-83
2022/10/12 07:26:15;;;;;;;2.23;2.03;;;5.90;97.30;;;;;;5098984;28;20193;-83
2022/10/12 07:28:40;;;;;;;2.50;1.90;;;6.00;97.30;;;;;;5098397;28;20173;-84
2022/10/12 07:31:08;;;;;;;2.13;1.97;;;6.10;97.30;;;;;;5098389;28;20678;-83
2022/10/12 07:33:35;;;;;;;3.47;3.27;;;6.30;97.30;;;;;;5098722;28;20174;-83
2022/10/12 07:36:01;;;;;;;5.57;3.83;;;6.40;97.30;;;;;;5097677;28;20407;-83
2022/10/12 07:38:27;;;;;;;2.13;1.83;;;6.50;97.30;;;;;;5098349;28;20411;-84
2022/10/12 07:40:53;;;;;;;1.53;1.43;;;6.60;97.30;;;;;;5098337;28;20955;-84
2022/10/12 07:43:19;;;;;;;3.87;3.67;;;6.80;97.30;;;;;;5097624;28;20516;-84
2022/10/12 07:45:44;;;;;;;2.03;1.90;;;6.90;97.30;;;;;;5097941;28;20190;-83
2022/10/12 07:48:10;;;;;;;8.03;3.67;;;7.00;97.30;;;;;;5116567;28;20532;-83
2022/10/12 07:50:36;;;;;;;3.80;3.60;;;7.10;97.30;;;;;;5099353;28;20190;-82
2022/10/12 07:53:01;;;;;;;2.20;2.00;;;7.30;97.30;;;;;;5098721;28;20415;-81
2022/10/12 07:55:30;;;;;;;5.70;3.20;;;7.40;97.30;;;;;;5097254;28;20654;-83
2022/10/12 07:57:57;;;;;;;31.17;5.20;;;7.50;97.30;;;;;;5114536;28;20174;-82
2022/10/12 08:00:23;;;;;;;3.50;2.23;;;7.60;97.30;;;;;;5097663;28;20419;-83
2022/10/12 08:02:48;;;;;;;5.30;2.70;;;7.70;97.30;;;;;;5097662;28;20499;-82
2022/10/12 08:05:14;;;;;;;2.37;2.17;;;7.80;97.30;;;;;;5097035;28;20249;-84
2022/10/12 08:07:39;;;;;;;10.83;3.77;;;7.90;97.30;;;;;;5096835;28;20675;-83
2022/10/12 08:10:05;;;;;;;2.63;2.43;;;8.00;97.30;;;;;;5096891;28;20215;-83
2022/10/12 08:12:31;;;;;;;2.40;2.20;;;8.10;97.30;;;;;;5096214;28;20270;-84
2022/10/12 08:14:56;;;;;;;3.47;2.10;;;8.20;97.30;;;;;;5096008;28;20415;-84
2022/10/12 08:17:22;;;;;;;2.57;2.30;;;8.40;97.30;;;;;;5077557;28;20182;-84
2022/10/12 08:19:47;;;;;;;2.20;1.73;;;8.50;97.30;;;;;;5076358;28;20239;-83
2022/10/12 08:22:13;;;;;;;1.53;1.47;;;8.60;97.30;;;;;;5075559;28;20240;-84
2022/10/12 08:24:38;;;;;;;4.50;2.13;;;8.80;97.30;;;;;;5076256;28;20239;-83
2022/10/12 08:27:04;;;;;;;3.50;2.70;;;8.90;97.30;;;;;;5075761;28;20287;-84
2022/10/12 08:29:32;;;;;;;4.10;2.00;;;9.10;97.30;;;;;;5076658;28;20174;-83
2022/10/12 08:31:57;;;;;;;1.80;1.70;;;9.20;97.30;;;;;;5075927;28;20339;-84
2022/10/12 08:34:24;;;;;;;2.60;2.40;;;9.30;97.30;;;;;;5092633;28;20492;-84
2022/10/12 08:36:50;;;;;;;2.97;2.77;;;9.50;97.30;;;;;;5075897;28;20178;-83
2022/10/12 08:39:16;;;;;;;5.47;2.80;;;9.60;97.30;;;;;;5093453;28;20403;-84
2022/10/12 08:41:58;;;;;;;3.60;1.93;;;9.70;97.30;;;;;;5074833;28;20465;-83
2022/10/12 08:44:37;;;;;;;6.97;3.40;;;9.90;97.30;;;;;;5074093;28;20455;-80
2022/10/12 08:47:19;;;;;;;3.33;2.30;;;10.00;97.30;;;;;;5073979;28;20455;-80
2022/10/12 08:49:47;;;;;;;4.57;2.23;;;10.10;97.30;;;;;;5073642;28;20488;-81
2022/10/12 08:52:32;;;;;;;6.77;1.43;;;10.30;97.30;;;;;;5094386;28;20427;-81
2022/10/12 08:55:05;;;;;;;1.70;1.60;;;10.40;97.30;;;;;;5078144;28;20420;-84
2022/10/12 08:57:31;;;;;;;2.40;2.20;;;10.50;97.30;;;;;;5077869;28;20412;-81
2022/10/12 08:59:58;;;;;;;2.17;2.00;;;10.70;97.30;;;;;;5077671;28;20795;-81
2022/10/12 09:02:47;;;;;;;1.37;1.27;;;10.80;97.30;;;;;;5093802;28;20582;-81
2022/10/12 09:05:30;;;;;;;3.40;2.20;;;10.90;97.30;;;;;;5097680;28;20434;-84
2022/10/12 09:08:02;;;;;;;6.90;1.70;;;11.00;97.30;;;;;;5097183;28;20458;-83
2022/10/12 09:10:45;;;;;;;10.73;3.23;;;11.20;97.30;;;;;;5097542;28;20439;-80
2022/10/12 09:13:21;;;;;;;1.70;1.60;;;11.30;97.30;;;;;;5097651;28;20419;-81
2022/10/12 09:16:03;;;;;;;4.40;1.53;;;11.40;97.30;;;;;;5097053;28;20498;-80
2022/10/12 09:18:45;;;;;;;1.97;1.90;;;11.60;97.30;;;;;;5096902;28;20422;-80
2022/10/12 09:21:19;;;;;;;1.20;1.20;;;11.70;97.30;;;;;;5096493;28;21019;-81
2022/10/12 09:23:45;;;;;;;3.03;2.03;;;11.80;97.30;;;;;;5097262;28;20427;-84
2022/10/12 09:26:14;;;;;;;5.03;2.33;;;12.00;97.30;;;;;;5097391;28;20454;-83
2022/10/12 09:28:53;;;;;;;6.13;1.67;;;12.10;97.30;;;;;;5097267;28;20573;-81
2022/10/12 09:32:01;;;;;;;9.20;1.73;;;12.20;97.30;;;;;;5096943;28;20431;-81
2022/10/12 09:34:27;;;;;;;5.40;3.27;;;12.40;97.30;;;;;;5096936;28;20913;-84
2022/10/12 09:36:54;;;;;;;10.60;1.97;;;12.50;97.30;;;;;;5096990;28;20436;-84
2022/10/12 09:39:26;;;;;;;1.23;1.23;;;12.60;97.20;;;;;;5096985;28;20201;-80
2022/10/12 09:41:51;;;;;;;4.00;2.53;;;12.70;97.30;;;;;;5097422;28;20488;-84
2022/10/12 09:44:40;;;;;;;1.30;1.20;;;12.90;96.60;;;;;;5096767;28;20706;-84
2022/10/12 09:47:22;;;;;;;3.67;1.50;;;13.10;96.10;;;;;;5096004;28;20205;-81
2022/10/12 09:49:57;;;;;;;2.60;1.63;;;13.20;96.40;;;;;;5096021;28;20445;-84
2022/10/12 09:52:26;;;;;;;1.47;1.27;;;13.30;95.80;;;;;;5096496;28;20506;-84
2022/10/12 09:54:56;;;;;;;1.93;1.83;;;13.50;95.50;;;;;;5096219;28;20465;-84
2022/10/12 09:57:24;;;;;;;2.30;1.87;;;13.60;95.50;;;;;;5114383;28;20755;-84
2022/10/12 09:59:51;;;;;;;1.80;1.70;;;13.70;95.30;;;;;;5096577;28;20460;-84
2022/10/12 10:02:19;;;;;;;3.33;1.40;;;13.90;94.80;;;;;;5097518;28;20436;-85
2022/10/12 10:04:47;;;;;;;1.23;1.13;;;14.00;94.60;;;;;;5097709;28;20510;-83
2022/10/12 10:07:32;;;;;;;2.60;1.63;;;14.10;93.90;;;;;;5096825;28;20787;-81
2022/10/12 10:10:21;;;;;;;7.70;1.53;;;14.20;93.40;;;;;;5096150;28;20423;-83
2022/10/12 10:12:55;;;;;;;6.83;2.17;;;14.40;93.30;;;;;;5095787;28;20494;-83
2022/10/12 10:15:41;;;;;;;22.27;2.50;;;14.50;92.50;;;;;;5093369;28;20783;-83
2022/10/12 10:18:41;;;;;;;1.27;1.17;;;14.60;92.30;;;;;;5076917;28;20412;-84
2022/10/12 10:21:10;;;;;;;1.40;1.30;;;14.80;91.40;;;;;;5093585;28;20471;-84
2022/10/12 10:23:48;;;;;;;1.20;1.10;;;14.90;91.30;;;;;;5074819;28;20420;-83
2022/10/12 10:26:16;;;;;;;1.20;1.10;;;15.00;91.30;;;;;;5075508;28;20514;-83
2022/10/12 10:28:43;;;;;;;3.53;1.60;;;15.20;91.30;;;;;;5094279;28;20487;-83
2022/10/12 10:31:12;;;;;;;4.63;1.70;;;15.30;90.90;;;;;;5074699;28;20425;-80
2022/10/12 10:33:38;;;;;;;2.40;1.57;;;15.40;90.50;;;;;;5074893;28;20414;-83
2022/10/12 10:36:18;;;;;;;1.60;1.50;;;15.60;90.20;;;;;;5074760;28;20474;-84
2022/10/12 10:38:58;;;;;;;7.10;1.50;;;15.70;90.50;;;;;;5077188;28;20416;-84
2022/10/12 10:41:29;;;;;;;5.23;3.10;;;15.80;89.90;;;;;;5092684;28;20449;-84
2022/10/12 10:43:55;;;;;;;6.77;1.80;;;15.90;88.90;;;;;;5074725;28;20419;-85
2022/10/12 10:46:23;;;;;;;2.10;1.97;;;16.00;89.40;;;;;;5074406;28;20456;-84
2022/10/12 10:48:57;;;;;;;3.17;2.50;;;16.10;89.10;;;;;;5074515;28;20177;-83
2022/10/12 10:51:43;;;;;;;3.63;2.00;;;16.30;88.80;;;;;;5075087;28;20439;-82
2022/10/12 10:54:30;;;;;;;11.30;3.10;;;16.40;88.90;;;;;;5075329;28;20813;-81
2022/10/12 10:57:03;;;;;;;4.23;2.37;;;16.50;88.20;;;;;;5094954;28;21035;-82
2022/10/12 10:59:48;;;;;;;1.83;1.70;;;16.50;88.10;;;;;;5094488;28;20412;-83
2022/10/12 11:02:30;;;;;;;1.20;1.10;;;16.70;87.90;;;;;;5095342;28;20482;-81
2022/10/12 11:05:12;;;;;;;2.00;1.43;;;16.80;88.00;;;;;;5077283;28;20419;-83
2022/10/12 11:07:52;;;;;;;4.23;1.80;;;17.00;87.20;;;;;;5076753;28;20543;-83
2022/10/12 11:10:24;;;;;;;2.40;1.83;;;17.00;87.00;;;;;;5075197;28;20408;-82
2022/10/12 11:12:55;;;;;;;2.27;1.67;;;17.20;87.80;;;;;;5075579;28;20405;-82
2022/10/12 11:15:27;;;;;;;32.73;2.40;;;17.30;87.10;;;;;;5074612;28;20419;-83
2022/10/12 11:18:06;;;;;;;3.80;2.70;;;17.40;86.80;;;;;;5076123;28;20405;-82
2022/10/12 11:20:53;;;;;;;3.80;3.40;;;17.40;86.00;;;;;;5075153;28;20433;-83
2022/10/12 11:23:41;;;;;;;1.20;1.10;;;17.50;85.10;;;;;;5075736;28;20416;-82
2022/10/12 11:26:27;;;;;;;1.93;1.83;;;17.50;85.20;;;;;;5075086;28;20400;-84
2022/10/12 11:28:56;;;;;;;1.97;1.90;;;17.60;84.60;;;;;;5093063;28;20472;-81
2022/10/12 11:31:30;;;;;;;3.00;2.07;;;17.70;84.80;;;;;;5075562;28;20829;-82
2022/10/12 11:33:58;;;;;;;1.50;1.40;;;17.70;83.90;;;;;;5075595;28;20412;-82
2022/10/12 11:36:27;;;;;;;1.70;1.60;;;17.80;84.60;;;;;;5075635;28;20848;-82
2022/10/12 11:39:00;;;;;;;2.37;2.13;;;17.90;84.00;;;;;;5075418;28;20415;-82
2022/10/12 11:41:44;;;;;;;1.60;1.50;;;18.00;84.40;;;;;;5093999;28;20433;-82
2022/10/12 11:44:19;;;;;;;2.60;1.77;;;18.10;84.20;;;;;;5075277;28;20417;-82
2022/10/12 11:47:05;;;;;;;12.73;1.73;;;18.20;83.70;;;;;;5075588;28;20459;-80
2022/10/12 11:49:50;;;;;;;4.73;1.53;;;18.30;84.30;;;;;;5094234;28;20405;-82
2022/10/12 11:52:17;;;;;;;1.37;1.27;;;18.40;84.40;;;;;;5075522;28;20962;-82
2022/10/12 11:54:51;;;;;;;1.20;1.10;;;18.50;84.70;;;;;;5074986;28;20419;-82
2022/10/12 11:57:29;;;;;;;10.00;1.83;;;18.60;83.40;;;;;;5075199;28;20420;-83
2022/10/12 12:00:21;;;;;;;3.00;2.07;;;18.70;83.30;;;;;;5074683;28;20507;-82
2022/10/12 12:03:02;;;;;;;1.93;1.87;;;18.90;81.90;;;;;;5074807;28;20405;-82
2022/10/12 12:05:30;;;;;;;3.73;1.80;;;19.00;82.60;;;;;;5074916;28;20760;-82
2022/10/12 12:07:56;;;;;;;2.80;1.70;;;19.20;82.00;;;;;;5075382;28;20486;-82
2022/10/12 12:10:25;;;;;;;3.43;2.13;;;19.30;82.10;;;;;;5093062;28;20416;-82
2022/10/12 12:13:12;;;;;;;1.67;1.43;;;19.40;82.70;;;;;;5075134;28;20201;-80
2022/10/12 12:15:39;;;;;;;4.50;2.77;;;19.40;82.00;;;;;;5079732;28;20913;-82
2022/10/12 12:18:24;;;;;;;2.50;1.67;;;19.50;82.40;;;;;;5095538;28;20415;-80
2022/10/12 12:21:01;;;;;;;2.73;1.60;;;19.50;81.00;;;;;;5113001;28;20470;-82
2022/10/12 12:23:42;;;;;;;1.30;1.20;;;19.70;81.00;;;;;;5114009;28;21040;-82
2022/10/12 12:26:10;;;;;;;1.30;1.20;;;19.90;80.30;;;;;;5097683;28;20442;-82
2022/10/12 12:28:43;;;;;;;23.73;3.43;;;20.00;79.60;;;;;;5099884;28;20502;-82
2022/10/12 12:31:25;;;;;;;4.03;2.43;;;20.10;80.20;;;;;;5118240;28;21078;-82
2022/10/12 12:34:04;;;;;;;1.73;1.60;;;20.20;80.10;;;;;;5099248;28;20399;-82
2022/10/12 12:36:36;;;;;;;1.50;1.40;;;20.00;80.10;;;;;;5118221;28;20928;-82
2022/10/12 12:39:05;;;;;;;2.10;1.97;;;20.00;80.20;;;;;;5118714;28;20436;-82
2022/10/12 12:41:55;;;;;;;1.70;1.60;;;20.00;80.40;;;;;;5117928;28;20473;-84
2022/10/12 12:44:32;;;;;;;1.47;1.37;;;20.10;79.50;;;;;;5089061;28;20424;-83
2022/10/12 12:47:01;;;;;;;4.77;2.20;;;20.30;78.80;;;;;;5119140;28;21065;-82
2022/10/12 12:49:38;;;;;;;2.60;2.40;;;20.40;78.60;;;;;;5118256;28;20404;-83
2022/10/12 12:52:27;;;;;;;1.90;1.37;;;20.50;78.10;;;;;;5100275;28;20969;-83
2022/10/12 12:55:15;;;;;;;1.97;1.87;;;20.70;78.30;;;;;;5100721;28;20412;-81
2022/10/12 12:58:05;;;;;;;1.37;1.27;;;20.80;77.90;;;;;;5100690;28;20430;-82
2022/10/12 13:00:56;;;;;;;3.50;1.97;;;20.90;78.90;;;;;;5100236;28;20450;-83
2022/10/12 13:03:40;;;;;;;1.50;1.37;;;21.00;78.60;;;;;;5098006;28;20423;-82
2022/10/12 13:06:11;;;;;;;2.63;1.97;;;21.00;77.30;;;;;;5116978;28;20395;-82
2022/10/12 13:08:47;;;;;;;2.70;1.80;;;21.10;77.20;;;;;;5117723;28;20835;-81
2022/10/12 13:11:47;;;;;;;2.40;1.87;;;21.30;78.10;;;;;;5098535;28;20446;-82